createdAt,value
2022-11-28T00:00:45.192Z,36.60
2022-11-28T00:03:49.756Z,30.80
2022-11-28T00:06:54.422Z,29.20
2022-11-28T00:09:57.759Z,29.03
2022-11-28T00:13:03.750Z,28.80
2022-11-28T00:16:11.169Z,32.43
2022-11-28T00:19:17.255Z,35.23
2022-11-28T00:22:22.612Z,30.03
2022-11-28T00:25:25.627Z,31.40
2022-11-28T00:28:29.666Z,34.90
2022-11-28T00:31:36.953Z,32.43
2022-11-28T00:34:44.141Z,37.13
2022-11-28T00:37:47.140Z,32.73
2022-11-28T00:41:00.823Z,38.00
2022-11-28T00:44:03.883Z,33.47
2022-11-28T00:47:07.072Z,36.63
2022-11-28T00:50:16.282Z,33.47
2022-11-28T00:53:19.353Z,36.87
2022-11-28T00:56:25.394Z,36.43
2022-11-28T00:59:28.387Z,36.90
2022-11-28T01:02:32.097Z,33.17
2022-11-28T01:05:41.852Z,36.60
2022-11-28T01:08:44.830Z,37.33
2022-11-28T01:11:49.060Z,32.30
2022-11-28T01:14:54.687Z,32.07
2022-11-28T01:17:57.718Z,33.37
2022-11-28T01:21:02.065Z,33.07
2022-11-28T01:24:05.821Z,31.43
2022-11-28T01:27:11.021Z,33.97
2022-11-28T01:30:14.585Z,30.43
2022-11-28T01:33:17.670Z,31.00
2022-11-28T01:36:23.982Z,32.93
2022-11-28T01:39:27.066Z,28.03
2022-11-28T01:42:33.246Z,31.53
2022-11-28T01:45:36.895Z,29.87
2022-11-28T01:48:43.580Z,30.77
2022-11-28T01:51:55.574Z,30.00
2022-11-28T01:55:02.264Z,28.10
2022-11-28T01:58:06.045Z,27.97
2022-11-28T02:01:10.014Z,27.87
2022-11-28T02:04:14.631Z,27.97
2022-11-28T02:07:19.720Z,26.70
2022-11-28T02:10:27.010Z,27.50
2022-11-28T02:13:44.916Z,27.53
2022-11-28T02:17:08.374Z,27.40
2022-11-28T02:21:11.223Z,23.73
2022-11-28T02:24:58.762Z,28.13
2022-11-28T02:32:56.990Z,27.40
2022-11-28T02:36:11.946Z,28.60
2022-11-28T02:39:24.759Z,26.70
2022-11-28T02:42:36.662Z,27.30
2022-11-28T02:45:50.727Z,26.97
2022-11-28T02:48:59.226Z,27.33
2022-11-28T02:52:08.167Z,31.97
2022-11-28T02:55:12.813Z,23.70
2022-11-28T02:58:16.517Z,27.40
2022-11-28T03:01:24.476Z,26.97
2022-11-28T03:04:39.595Z,28.30
2022-11-28T03:07:59.317Z,30.03
2022-11-28T03:11:16.863Z,31.50
2022-11-28T03:14:32.115Z,32.03
2022-11-28T03:17:46.079Z,30.67
2022-11-28T03:21:00.353Z,32.17
2022-11-28T03:24:11.893Z,32.23
2022-11-28T03:27:22.292Z,28.23
2022-11-28T03:30:31.739Z,28.23
2022-11-28T03:33:39.706Z,33.87
2022-11-28T03:36:51.900Z,33.23
2022-11-28T03:40:00.682Z,34.93
2022-11-28T03:43:09.261Z,34.07
2022-11-28T03:46:17.582Z,32.53
2022-11-28T03:49:26.067Z,38.23
2022-11-28T03:52:34.448Z,30.67
2022-11-28T03:55:43.618Z,34.13
2022-11-28T03:58:55.679Z,33.70
2022-11-28T04:02:07.873Z,35.40
2022-11-28T04:05:20.230Z,37.00
2022-11-28T04:08:30.413Z,37.53
2022-11-28T04:11:42.056Z,40.47
2022-11-28T04:14:52.788Z,33.47
2022-11-28T04:18:01.614Z,37.90
2022-11-28T04:21:13.615Z,38.97
2022-11-28T04:24:22.727Z,37.37
2022-11-28T04:27:33.342Z,36.17
2022-11-28T04:30:39.308Z,37.30
2022-11-28T04:33:50.631Z,36.20
2022-11-28T04:36:56.339Z,37.50
2022-11-28T04:40:02.715Z,33.00
2022-11-28T04:43:17.076Z,33.60
2022-11-28T04:46:29.793Z,34.93
2022-11-28T04:49:34.880Z,36.67
2022-11-28T04:52:46.357Z,35.80
2022-11-28T04:55:57.060Z,34.80
2022-11-28T04:59:01.557Z,31.30
2022-11-28T05:02:06.302Z,33.43
2022-11-28T05:05:12.513Z,35.37
2022-11-28T05:08:16.389Z,33.43
2022-11-28T05:11:20.868Z,34.40
2022-11-28T05:14:24.695Z,39.10
2022-11-28T05:17:27.750Z,36.23
2022-11-28T05:20:31.350Z,33.33
2022-11-28T05:23:34.407Z,34.43
2022-11-28T05:26:38.881Z,29.53
2022-11-28T05:29:46.838Z,39.10
2022-11-28T05:32:52.569Z,32.20
2022-11-28T05:35:55.718Z,32.67
2022-11-28T05:38:58.703Z,32.00
2022-11-28T05:42:03.077Z,33.53
2022-11-28T05:45:07.137Z,34.57
2022-11-28T05:48:10.509Z,39.57
2022-11-28T05:51:14.016Z,43.80
2022-11-28T05:54:17.047Z,40.27
2022-11-28T05:57:21.358Z,33.90
2022-11-28T06:00:24.645Z,43.63
2022-11-28T06:03:28.030Z,37.10
2022-11-28T06:06:33.895Z,35.27
2022-11-28T06:09:37.570Z,33.97
2022-11-28T06:12:41.923Z,37.53
2022-11-28T06:15:45.496Z,40.43
2022-11-28T06:18:48.963Z,38.10
2022-11-28T06:21:52.119Z,39.87
2022-11-28T06:24:55.344Z,34.27
2022-11-28T06:27:59.608Z,33.50
2022-11-28T06:31:02.683Z,39.30
2022-11-28T06:34:05.714Z,35.90
2022-11-28T06:37:08.829Z,32.93
2022-11-28T06:40:12.221Z,35.27
2022-11-28T06:43:16.774Z,36.97
2022-11-28T06:46:22.171Z,38.57
2022-11-28T06:49:25.246Z,36.77
2022-11-28T06:52:31.605Z,38.87
2022-11-28T06:55:37.954Z,42.00
2022-11-28T06:58:43.944Z,39.23
2022-11-28T07:01:46.985Z,35.87
2022-11-28T07:04:50.004Z,36.77
2022-11-28T07:07:54.424Z,42.10
2022-11-28T07:10:58.263Z,38.20
2022-11-28T07:14:03.961Z,44.67
2022-11-28T07:17:06.970Z,39.03
2022-11-28T07:20:11.414Z,46.30
2022-11-28T07:23:14.494Z,40.33
2022-11-28T07:26:23.826Z,41.57
2022-11-28T07:29:35.649Z,38.43
2022-11-28T07:32:41.482Z,42.23
2022-11-28T07:35:44.755Z,38.57
2022-11-28T07:38:49.295Z,42.70
2022-11-28T07:41:52.429Z,40.00
2022-11-28T07:44:57.554Z,37.50
2022-11-28T07:48:00.494Z,38.43
2022-11-28T07:51:07.866Z,43.43
2022-11-28T07:54:11.052Z,40.13
2022-11-28T07:57:14.068Z,45.20
2022-11-28T08:00:20.727Z,38.57
2022-11-28T08:03:24.055Z,38.60
2022-11-28T08:06:30.273Z,40.70
2022-11-28T08:09:33.867Z,40.43
2022-11-28T08:12:37.340Z,39.57
2022-11-28T08:15:42.027Z,37.53
2022-11-28T08:18:46.070Z,40.77
2022-11-28T08:21:49.055Z,41.57
2022-11-28T08:24:52.192Z,45.03
2022-11-28T08:27:55.156Z,43.20
2022-11-28T08:31:01.500Z,41.93
2022-11-28T08:34:07.032Z,41.00
2022-11-28T08:37:09.983Z,47.33
2022-11-28T08:40:14.146Z,45.77
2022-11-28T08:43:17.114Z,41.00
2022-11-28T08:46:23.908Z,40.67
2022-11-28T08:49:26.903Z,42.43
2022-11-28T08:52:30.166Z,47.97
2022-11-28T08:55:36.587Z,41.60
2022-11-28T08:58:42.242Z,36.20
2022-11-28T09:01:46.571Z,39.33
2022-11-28T09:04:49.579Z,41.23
2022-11-28T09:07:55.615Z,36.57
2022-11-28T09:10:58.717Z,39.97
2022-11-28T09:14:01.692Z,38.57
2022-11-28T09:17:06.373Z,35.40
2022-11-28T09:20:10.769Z,36.23
2022-11-28T09:23:13.785Z,42.73
2022-11-28T09:26:20.564Z,41.40
2022-11-28T09:29:23.581Z,36.57
2022-11-28T09:32:27.882Z,45.20
2022-11-28T09:35:30.828Z,38.43
2022-11-28T09:38:34.355Z,34.13
2022-11-28T09:41:59.346Z,41.83
2022-11-28T09:45:06.591Z,37.67
2022-11-28T09:48:25.803Z,39.23
2022-11-28T09:51:34.313Z,38.87
2022-11-28T09:54:45.844Z,40.23
2022-11-28T09:57:51.166Z,44.13
2022-11-28T10:01:01.975Z,37.23
2022-11-28T10:04:16.185Z,40.57
2022-11-28T10:07:27.196Z,38.87
2022-11-28T10:10:39.909Z,40.37
2022-11-28T10:14:07.905Z,43.60
2022-11-28T10:17:22.227Z,37.67
2022-11-28T10:20:29.745Z,41.70
2022-11-28T10:23:40.189Z,39.73
2022-11-28T10:26:47.369Z,38.23
2022-11-28T10:29:54.900Z,42.30
2022-11-28T10:33:05.397Z,44.33
2022-11-28T10:36:16.480Z,43.33
2022-11-28T10:39:20.094Z,36.37
2022-11-28T10:42:31.221Z,42.93
2022-11-28T10:45:46.854Z,40.47
2022-11-28T10:48:56.859Z,43.07
2022-11-28T10:52:11.435Z,40.63
2022-11-28T10:55:32.035Z,42.00
2022-11-28T10:58:43.864Z,40.30
2022-11-28T11:02:05.388Z,39.97
2022-11-28T11:05:15.147Z,41.83
2022-11-28T11:08:26.126Z,38.73
2022-11-28T11:11:35.850Z,39.03
2022-11-28T11:14:40.851Z,35.03
2022-11-28T11:17:44.173Z,37.83
2022-11-28T11:20:48.123Z,35.80
2022-11-28T11:24:13.530Z,34.57
2022-11-28T11:27:22.033Z,39.00
2022-11-28T11:30:34.288Z,41.00
2022-11-28T11:33:38.786Z,33.90
2022-11-28T11:36:41.803Z,35.27
2022-11-28T11:39:51.371Z,36.77
2022-11-28T11:42:57.201Z,33.63
2022-11-28T11:46:09.433Z,37.20
2022-11-28T11:49:30.678Z,31.60
2022-11-28T11:52:34.210Z,31.53
2022-11-28T11:55:48.403Z,30.83
2022-11-28T11:58:54.468Z,33.70
2022-11-28T12:02:02.812Z,28.13
2022-11-28T12:05:13.663Z,31.43
2022-11-28T12:08:21.718Z,33.43
2022-11-28T12:11:30.776Z,33.83
2022-11-28T12:14:36.442Z,31.83
2022-11-28T12:17:58.680Z,38.57
2022-11-28T12:21:13.775Z,33.90
2022-11-28T12:24:20.991Z,29.83
2022-11-28T12:27:44.643Z,34.53
2022-11-28T12:31:00.225Z,32.47
2022-11-28T12:34:17.006Z,32.07
2022-11-28T12:38:09.739Z,33.10
2022-11-28T12:41:32.403Z,33.80
2022-11-28T12:44:54.759Z,32.73
2022-11-28T12:48:13.594Z,36.17
2022-11-28T12:51:29.133Z,33.23
2022-11-28T12:54:57.802Z,33.50
2022-11-28T12:58:09.602Z,38.40
2022-11-28T13:01:40.340Z,37.77
2022-11-28T13:05:02.531Z,37.77
2022-11-28T13:08:48.810Z,38.67
2022-11-28T13:12:04.454Z,38.40
2022-11-28T13:15:16.061Z,31.80
2022-11-28T13:18:38.144Z,33.80
2022-11-28T13:21:48.714Z,37.67
2022-11-28T13:25:04.621Z,31.57
2022-11-28T13:28:17.595Z,32.80
2022-11-28T13:31:28.267Z,35.33
2022-11-28T13:34:33.648Z,32.53
2022-11-28T13:41:35.772Z,32.57
2022-11-28T13:44:51.736Z,33.97
2022-11-28T13:47:55.704Z,38.13
2022-11-28T13:51:06.595Z,35.17
2022-11-28T13:54:45.194Z,36.17
2022-11-28T13:57:48.816Z,39.97
2022-11-28T14:01:07.827Z,41.10
2022-11-28T14:04:14.027Z,49.53
2022-11-28T14:07:27.450Z,48.83
2022-11-28T14:10:52.583Z,43.47
2022-11-28T14:14:20.583Z,48.37
2022-11-28T14:17:42.721Z,52.47
2022-11-28T14:21:11.527Z,51.50
2022-11-28T14:24:38.781Z,48.17
2022-11-28T14:27:52.236Z,55.27
2022-11-28T14:31:05.231Z,51.03
2022-11-28T14:34:40.070Z,50.30
2022-11-28T14:37:55.536Z,53.10
2022-11-28T14:41:04.360Z,57.47
2022-11-28T14:44:47.209Z,52.80
2022-11-28T14:48:18.273Z,56.87
2022-11-28T14:52:38.388Z,55.03
2022-11-28T14:55:42.583Z,51.77
2022-11-28T14:58:48.459Z,54.00
2022-11-28T15:02:01.347Z,50.47
2022-11-28T15:05:19.031Z,54.23
2022-11-28T15:08:50.698Z,51.77
2022-11-28T15:12:11.504Z,52.17
2022-11-28T15:15:17.466Z,53.20
2022-11-28T15:18:24.762Z,60.37
2022-11-28T15:21:29.384Z,50.27
2022-11-28T15:24:35.938Z,53.53
2022-11-28T15:27:39.294Z,56.60
2022-11-28T15:30:46.888Z,57.07
2022-11-28T15:33:51.098Z,52.30
2022-11-28T15:36:57.296Z,52.23
2022-11-28T15:40:06.047Z,59.87
2022-11-28T15:43:13.271Z,52.90
2022-11-28T15:46:21.700Z,50.53
2022-11-28T15:49:29.166Z,58.10
2022-11-28T15:52:32.472Z,54.70
2022-11-28T15:55:37.292Z,58.10
2022-11-28T15:58:42.062Z,57.63
2022-11-28T16:01:45.207Z,53.60
2022-11-28T16:04:48.715Z,57.40
2022-11-28T16:07:53.546Z,51.60
2022-11-28T16:10:59.306Z,56.07
2022-11-28T16:14:09.930Z,54.13
2022-11-28T16:17:20.308Z,58.67
2022-11-28T16:20:26.859Z,53.03
2022-11-28T16:23:34.320Z,52.63
2022-11-28T16:26:41.490Z,55.03
2022-11-28T16:29:47.358Z,54.53
2022-11-28T16:32:51.812Z,60.37
2022-11-28T16:35:54.833Z,57.33
2022-11-28T16:39:13.215Z,64.77
2022-11-28T16:42:20.148Z,59.57
2022-11-28T16:45:30.917Z,53.80
2022-11-28T16:48:36.906Z,62.93
2022-11-28T16:51:42.032Z,60.37
2022-11-28T16:54:45.675Z,61.60
2022-11-28T16:57:56.192Z,64.40
2022-11-28T17:01:02.908Z,61.27
2022-11-28T17:04:06.971Z,63.27
2022-11-28T17:07:13.992Z,59.20
2022-11-28T17:10:17.475Z,64.27
2022-11-28T17:13:22.276Z,66.70
2022-11-28T17:16:27.294Z,59.63
2022-11-28T17:19:30.489Z,62.47
2022-11-28T17:22:40.991Z,67.20
2022-11-28T17:25:44.470Z,66.10
2022-11-28T17:28:49.797Z,69.20
2022-11-28T17:31:57.131Z,67.10
2022-11-28T17:35:03.992Z,71.03
2022-11-28T17:38:07.235Z,73.23
2022-11-28T17:41:14.724Z,70.00
2022-11-28T17:44:21.770Z,67.60
2022-11-28T17:47:25.056Z,70.80
2022-11-28T17:50:28.539Z,71.53
2022-11-28T17:53:31.900Z,66.47
2022-11-28T17:56:35.281Z,69.00
2022-11-28T17:59:40.053Z,71.43
2022-11-28T18:02:43.446Z,69.87
2022-11-28T18:05:48.668Z,63.33
2022-11-28T18:08:52.665Z,78.80
2022-11-28T18:11:55.955Z,68.73
2022-11-28T18:15:00.976Z,78.97
2022-11-28T18:18:05.773Z,69.87
2022-11-28T18:21:12.053Z,77.23
2022-11-28T18:24:15.103Z,76.87
2022-11-28T18:27:18.428Z,74.60
2022-11-28T18:30:23.035Z,73.03
2022-11-28T18:33:26.401Z,69.77
2022-11-28T18:36:34.532Z,71.57
2022-11-28T18:39:37.912Z,75.67
2022-11-28T18:42:44.479Z,73.13
2022-11-28T18:45:49.572Z,73.83
2022-11-28T18:48:53.836Z,73.33
2022-11-28T18:51:57.935Z,73.57
2022-11-28T18:55:01.072Z,66.20
2022-11-28T18:58:05.580Z,68.17
2022-11-28T19:01:15.016Z,70.30
2022-11-28T19:04:18.378Z,72.43
2022-11-28T19:07:22.521Z,70.33
2022-11-28T19:10:25.947Z,62.90
2022-11-28T19:13:29.198Z,74.93
2022-11-28T19:16:37.383Z,73.30
2022-11-28T19:19:41.373Z,70.57
2022-11-28T19:22:44.737Z,68.20
2022-11-28T19:25:49.111Z,75.63
2022-11-28T19:28:56.429Z,68.47
2022-11-28T19:32:00.924Z,69.33
2022-11-28T19:35:04.408Z,72.20
2022-11-28T19:38:07.651Z,70.03
2022-11-28T19:41:13.697Z,66.87
2022-11-28T19:44:17.275Z,65.00
2022-11-28T19:47:22.925Z,68.73
2022-11-28T19:50:26.290Z,65.10
2022-11-28T19:53:31.344Z,66.60
2022-11-28T19:56:36.625Z,65.10
2022-11-28T19:59:39.802Z,66.67
2022-11-28T20:02:47.708Z,66.30
2022-11-28T20:05:51.383Z,68.13
2022-11-28T20:09:00.530Z,68.57
2022-11-28T20:12:05.663Z,71.10
2022-11-28T20:15:16.672Z,68.93
2022-11-28T20:18:22.555Z,61.93
2022-11-28T20:21:25.644Z,68.30
2022-11-28T20:24:30.127Z,69.53
2022-11-28T20:27:33.809Z,68.40
2022-11-28T20:30:37.233Z,68.80
2022-11-28T20:33:42.218Z,67.60
2022-11-28T20:36:45.994Z,63.20
2022-11-28T20:39:49.406Z,71.47
2022-11-28T20:42:53.072Z,64.83
2022-11-28T20:45:56.276Z,68.30
2022-11-28T20:49:03.434Z,75.00
2022-11-28T20:52:06.727Z,63.37
2022-11-28T20:55:10.235Z,62.07
2022-11-28T20:58:13.427Z,64.07
2022-11-28T21:01:22.743Z,62.03
2022-11-28T21:04:27.167Z,65.17
2022-11-28T21:07:31.002Z,63.60
2022-11-28T21:10:34.700Z,62.20
2022-11-28T21:13:37.790Z,62.60
2022-11-28T21:16:40.936Z,65.00
2022-11-28T21:19:45.692Z,63.17
2022-11-28T21:22:51.174Z,64.07
2022-11-28T21:25:54.191Z,66.60
2022-11-28T21:29:01.357Z,61.17
2022-11-28T21:32:04.395Z,63.40
2022-11-28T21:35:10.074Z,66.63
2022-11-28T21:38:13.183Z,70.70
2022-11-28T21:41:16.242Z,58.30
2022-11-28T21:44:19.293Z,66.23
2022-11-28T21:47:22.493Z,63.10
2022-11-28T21:50:27.077Z,66.53
2022-11-28T21:53:31.319Z,60.43
2022-11-28T21:56:34.977Z,61.87
2022-11-28T21:59:40.861Z,63.13
2022-11-28T22:02:46.313Z,58.97
2022-11-28T22:05:52.508Z,65.07
2022-11-28T22:08:55.957Z,60.10
2022-11-28T22:11:59.090Z,58.97
2022-11-28T22:15:02.183Z,60.93
2022-11-28T22:18:05.633Z,59.93
2022-11-28T22:21:49.476Z,60.37
2022-11-28T22:24:36.929Z,60.07
2022-11-28T22:27:41.238Z,60.13
2022-11-28T22:30:44.368Z,58.17
2022-11-28T22:33:47.351Z,56.87
2022-11-28T22:36:51.687Z,61.50
2022-11-28T22:39:56.530Z,63.23
2022-11-28T22:43:02.013Z,58.60
2022-11-28T22:46:06.040Z,60.80
2022-11-28T22:49:11.262Z,57.80
2022-11-28T22:52:16.931Z,63.60
2022-11-28T22:55:20.511Z,56.50
2022-11-28T22:58:23.933Z,57.43
2022-11-28T23:01:29.973Z,58.40
2022-11-28T23:04:33.318Z,57.07
2022-11-28T23:07:37.710Z,59.97
2022-11-28T23:10:40.691Z,61.40
2022-11-28T23:13:45.440Z,59.23
2022-11-28T23:16:49.900Z,55.27
2022-11-28T23:19:53.416Z,53.23
2022-11-28T23:22:57.718Z,54.63
2022-11-28T23:26:05.398Z,57.87
2022-11-28T23:29:08.618Z,52.80
2022-11-28T23:32:11.834Z,54.23
2022-11-28T23:35:15.489Z,55.57
2022-11-28T23:38:19.874Z,55.47
2022-11-28T23:41:23.628Z,53.33
2022-11-28T23:44:26.838Z,57.00
2022-11-28T23:47:29.794Z,60.87
2022-11-28T23:50:32.762Z,58.83
2022-11-28T23:53:38.070Z,54.07
2022-11-28T23:56:42.988Z,54.87
2022-11-28T23:59:46.208Z,52.03
